Airfield :
LOGIN :

Register | Disclaimer

   EN    FR    IT 

 










Legend :    VFR   Marginal VFR   IFR   Intensive IFR   Very Intensive IFR
Visi :
Ceiling :
>= 8 km
>= 3000ft
5 to 8 km
1000 to 3000 ft
1500m to 5 km
500 to 1000 ft
800 to 1500m
200 to 500 ft
< 800m
< 200 ft
Symbols :   Thunderstorms  Fog  Heavy snow  Heavy precipitations  Wind > 20 kt
SIGMETs :     Misc.  Thunderstorms  Icing  Turbulence  Mountain Waves  Volcanic Ashes







- Airport Elevation : 72 ft
- IATA code : UDE


EHVK - Volkel Airbase

CURRENT METAR :
  • 221225Z AUTO 06013KT 040V110 9999 FEW035 05/M04 Q1024 BLU 06010G20KT 9999 FEW035

EXPIRED METARs :
  • 221155Z AUTO 06014KT 030V090 9999 NCD 04/M04 Q1024 BLU
  • 221125Z AUTO 06013KT 9999 NCD 04/M03 Q1025 BLU
  • 221055Z AUTO 07013KT 040V110 9999 FEW029 03/M04 Q1025 BLU
  • 221025Z AUTO 07014KT 040V100 9999 NCD 03/M04 Q1025 BLU
  • 220955Z AUTO 07015KT 040V100 9999 NCD 02/M05 Q1025 BLU
  • 220925Z AUTO 05009KT 030V090 9999 NCD 01/M04 Q1025 BLU

TAF TAF EHVK
Valid from the 22 at 10:00 until the 22 at 22:00 UTC


220917Z 2210/2222 05008KT CAVOK
TEMPO 2213/2216 06010G22KT
No reported NOTAMs for that airfield.



MET'MAP, your aeronautical weather chart ! - Copyright ORBIFLY December 2007 - Disclaimer

ORBIFLY MET'MAP TEAM :

Programming & Development : Alexandra Zaïnal
Concept & Development : Baudouin d'Aumeries
Co-Development & Prog : Marc-Olivier Méhu
Technical & hardware support : Manuel Goepfert

Contact : metmap@orbifly.com




SOURCES & CREDITS :

   NOAA